createdAt,value
2019-04-29T00:00:54.666Z,0.00
2019-04-29T00:01:54.580Z,0.00
2019-04-29T00:02:54.718Z,0.00
2019-04-29T00:03:54.610Z,0.00
2019-04-29T00:04:54.771Z,0.00
2019-04-29T00:05:54.619Z,0.00
2019-04-29T00:06:54.705Z,0.00
2019-04-29T00:07:54.657Z,0.00
2019-04-29T00:08:54.659Z,0.00
2019-04-29T00:09:54.681Z,0.00
2019-04-29T00:10:54.679Z,0.00
2019-04-29T00:11:54.701Z,0.00
2019-04-29T00:12:54.706Z,0.00
2019-04-29T00:13:54.739Z,0.00
2019-04-29T00:14:54.729Z,0.00
2019-04-29T00:15:54.806Z,0.00
2019-04-29T00:16:54.756Z,0.00
2019-04-29T00:17:54.779Z,0.00
2019-04-29T00:18:54.835Z,0.00
2019-04-29T00:19:55.319Z,0.00
2019-04-29T00:20:54.864Z,0.00
2019-04-29T00:21:54.812Z,0.00
2019-04-29T00:22:54.834Z,0.00
2019-04-29T00:24:03.578Z,0.00
2019-04-29T00:24:54.890Z,0.00
2019-04-29T00:25:54.875Z,0.00
2019-04-29T00:26:54.883Z,0.00
2019-04-29T00:27:54.928Z,0.00
2019-04-29T00:28:55.012Z,0.00
2019-04-29T00:31:54.955Z,0.00
2019-04-29T00:32:54.938Z,0.00
2019-04-29T00:33:54.953Z,0.00
2019-04-29T00:34:54.971Z,0.00
2019-04-29T00:35:54.985Z,0.00
2019-04-29T00:36:55.006Z,0.00
2019-04-29T00:37:54.998Z,0.00
2019-04-29T00:38:55.407Z,0.00
2019-04-29T00:39:55.622Z,0.00
2019-04-29T00:40:55.132Z,0.00
2019-04-29T00:42:55.068Z,0.00
2019-04-29T00:43:55.085Z,0.00
2019-04-29T00:44:55.091Z,0.00
2019-04-29T00:45:55.090Z,0.00
2019-04-29T00:46:55.103Z,0.00
2019-04-29T00:47:55.124Z,0.00
2019-04-29T00:48:55.136Z,0.00
2019-04-29T00:49:55.145Z,0.00
2019-04-29T00:50:55.150Z,0.00
2019-04-29T00:51:55.172Z,0.00
2019-04-29T00:52:55.195Z,0.00
2019-04-29T00:53:55.215Z,0.00
2019-04-29T00:54:55.202Z,0.00
2019-04-29T00:56:55.266Z,0.00
2019-04-29T00:57:55.354Z,0.00
2019-04-29T00:58:55.243Z,0.00
2019-04-29T00:59:55.260Z,0.00
2019-04-29T01:00:55.272Z,0.00
2019-04-29T01:01:56.970Z,0.00
2019-04-29T01:02:55.290Z,0.00
2019-04-29T01:03:55.350Z,0.00
2019-04-29T01:04:55.919Z,0.00
2019-04-29T01:05:55.320Z,0.00
2019-04-29T01:06:55.418Z,0.00
2019-04-29T01:07:55.397Z,0.00
2019-04-29T01:08:55.418Z,0.00
2019-04-29T01:09:55.373Z,0.00
2019-04-29T01:10:55.411Z,0.00
2019-04-29T01:11:55.419Z,0.00
2019-04-29T01:12:55.408Z,0.00
2019-04-29T01:15:55.498Z,0.00
2019-04-29T01:16:55.503Z,0.00
2019-04-29T01:17:55.460Z,0.00
2019-04-29T01:18:55.470Z,0.00
2019-04-29T01:19:55.498Z,0.00
2019-04-29T01:20:55.572Z,0.00
2019-04-29T01:21:55.556Z,0.00
2019-04-29T01:22:55.523Z,0.00
2019-04-29T01:23:55.544Z,0.00
2019-04-29T01:24:55.549Z,0.00
2019-04-29T01:25:55.564Z,0.00
2019-04-29T01:26:55.556Z,0.00
2019-04-29T01:27:55.884Z,0.00
2019-04-29T01:28:55.600Z,0.00
2019-04-29T01:29:55.607Z,0.00
2019-04-29T01:30:55.608Z,0.00
2019-04-29T01:31:55.629Z,0.00
2019-04-29T01:32:56.156Z,0.00
2019-04-29T01:33:57.013Z,0.00
2019-04-29T01:34:55.682Z,0.00
2019-04-29T01:35:55.662Z,0.00
2019-04-29T01:36:55.728Z,0.00
2019-04-29T01:38:55.710Z,0.00
2019-04-29T01:39:55.825Z,0.00
2019-04-29T01:40:56.335Z,0.00
2019-04-29T01:41:55.791Z,0.00
2019-04-29T01:42:55.741Z,0.00
2019-04-29T01:43:55.764Z,0.00
2019-04-29T01:44:55.784Z,0.00
2019-04-29T01:45:55.829Z,0.00
2019-04-29T01:48:55.846Z,0.00
2019-04-29T01:49:55.827Z,0.00
2019-04-29T01:50:55.862Z,0.00
2019-04-29T01:51:55.867Z,0.00
2019-04-29T01:52:56.101Z,0.00
2019-04-29T01:53:55.885Z,0.00
2019-04-29T01:54:55.894Z,0.00
2019-04-29T01:55:55.912Z,0.00
2019-04-29T01:56:55.907Z,0.00
2019-04-29T01:57:55.921Z,0.00
2019-04-29T01:58:58.556Z,0.00
2019-04-29T01:59:55.955Z,0.00
2019-04-29T02:00:55.951Z,0.00
2019-04-29T02:01:56.086Z,0.00
2019-04-29T02:02:56.012Z,0.00
2019-04-29T02:03:55.981Z,0.00
2019-04-29T02:05:56.018Z,0.00
2019-04-29T02:06:56.014Z,0.00
2019-04-29T02:07:56.144Z,0.00
2019-04-29T02:08:56.246Z,0.00
2019-04-29T02:09:56.056Z,0.00
2019-04-29T02:10:56.080Z,0.00
2019-04-29T02:11:56.078Z,0.00
2019-04-29T02:12:56.086Z,0.00
2019-04-29T02:13:56.094Z,0.00
2019-04-29T02:14:56.105Z,0.00
2019-04-29T02:15:56.673Z,0.00
2019-04-29T02:16:56.337Z,0.00
2019-04-29T02:17:57.566Z,0.00
2019-04-29T02:18:56.164Z,0.00
2019-04-29T02:19:56.214Z,0.00
2019-04-29T02:20:56.710Z,0.00
2019-04-29T02:21:56.193Z,0.00
2019-04-29T02:22:56.205Z,0.00
2019-04-29T02:23:56.209Z,0.00
2019-04-29T02:24:56.212Z,0.00
2019-04-29T02:25:56.230Z,0.00
2019-04-29T02:26:56.247Z,0.00
2019-04-29T02:27:56.258Z,0.00
2019-04-29T02:28:56.281Z,0.00
2019-04-29T02:30:56.298Z,0.00
2019-04-29T02:32:56.407Z,0.00
2019-04-29T02:33:56.329Z,0.00
2019-04-29T02:34:56.344Z,0.00
2019-04-29T02:35:57.175Z,0.00
2019-04-29T02:36:56.351Z,0.00
2019-04-29T02:37:56.353Z,0.00
2019-04-29T02:38:56.924Z,0.00
2019-04-29T02:39:56.381Z,0.00
2019-04-29T02:40:56.408Z,0.00
2019-04-29T02:41:56.402Z,0.00
2019-04-29T02:42:56.415Z,0.00
2019-04-29T02:43:56.472Z,0.00
2019-04-29T02:44:56.450Z,0.00
2019-04-29T02:45:56.442Z,0.00
2019-04-29T02:46:56.463Z,0.00
2019-04-29T02:47:58.233Z,0.00
2019-04-29T02:48:56.912Z,0.00
2019-04-29T02:49:57.604Z,0.00
2019-04-29T02:50:56.551Z,0.00
2019-04-29T02:51:56.713Z,0.00
2019-04-29T02:52:56.800Z,0.00
2019-04-29T02:53:56.557Z,0.00
2019-04-29T02:54:56.549Z,0.00
2019-04-29T02:55:56.572Z,0.00
2019-04-29T02:56:56.628Z,0.00
2019-04-29T02:57:56.586Z,0.00
2019-04-29T02:58:56.603Z,0.00
2019-04-29T02:59:56.609Z,0.00
2019-04-29T03:00:56.609Z,0.00
2019-04-29T03:01:56.629Z,0.00
2019-04-29T03:02:56.820Z,0.00
2019-04-29T03:03:56.652Z,0.00
2019-04-29T03:04:56.675Z,0.00
2019-04-29T03:05:56.673Z,0.00
2019-04-29T03:06:56.705Z,0.00
2019-04-29T03:07:56.798Z,0.00
2019-04-29T03:08:56.709Z,0.00
2019-04-29T03:10:57.241Z,0.00
2019-04-29T03:11:56.739Z,0.00
2019-04-29T03:12:56.760Z,0.00
2019-04-29T03:13:56.759Z,0.00
2019-04-29T03:14:56.767Z,0.00
2019-04-29T03:15:56.832Z,0.00
2019-04-29T03:16:56.811Z,0.00
2019-04-29T03:17:57.209Z,0.00
2019-04-29T03:18:56.954Z,0.00
2019-04-29T03:19:56.823Z,0.00
2019-04-29T03:20:57.052Z,0.00
2019-04-29T03:21:56.871Z,4.00
2019-04-29T03:22:57.532Z,4.00
2019-04-29T03:23:56.872Z,4.00
2019-04-29T03:24:56.955Z,4.00
2019-04-29T03:25:56.898Z,4.00
2019-04-29T03:26:56.924Z,4.00
2019-04-29T03:28:56.928Z,4.00
2019-04-29T03:29:57.023Z,4.00
2019-04-29T03:30:56.959Z,4.00
2019-04-29T03:31:56.973Z,4.00
2019-04-29T03:32:57.330Z,4.00
2019-04-29T03:33:56.987Z,4.00
2019-04-29T03:34:57.018Z,4.00
2019-04-29T03:36:00.208Z,4.00
2019-04-29T03:36:57.018Z,0.00
2019-04-29T03:37:57.042Z,4.00
2019-04-29T03:38:57.061Z,4.00
2019-04-29T03:39:57.158Z,4.00
2019-04-29T03:40:57.074Z,4.00
2019-04-29T03:41:57.180Z,8.00
2019-04-29T03:42:57.082Z,4.00
2019-04-29T03:43:57.084Z,4.00
2019-04-29T03:44:57.105Z,8.00
2019-04-29T03:45:57.121Z,4.00
2019-04-29T03:46:57.118Z,8.00
2019-04-29T03:47:57.146Z,8.00
2019-04-29T03:49:57.158Z,8.00
2019-04-29T03:50:57.199Z,8.00
2019-04-29T03:51:57.177Z,12.00
2019-04-29T03:53:58.482Z,16.00
2019-04-29T03:54:57.217Z,16.00
2019-04-29T03:55:57.242Z,20.00
2019-04-29T03:56:57.250Z,20.00
2019-04-29T03:57:57.289Z,24.00
2019-04-29T03:58:57.254Z,28.00
2019-04-29T03:59:57.325Z,32.00
2019-04-29T04:00:57.276Z,32.00
2019-04-29T04:01:57.559Z,40.00
2019-04-29T04:02:57.462Z,44.00
2019-04-29T04:03:57.325Z,48.00
2019-04-29T04:04:57.327Z,48.00
2019-04-29T04:05:57.868Z,52.00
2019-04-29T04:06:57.357Z,56.00
2019-04-29T04:07:57.352Z,68.00
2019-04-29T04:09:06.193Z,68.00
2019-04-29T04:09:57.374Z,76.00
2019-04-29T04:10:57.468Z,84.00
2019-04-29T04:11:57.396Z,88.00
2019-04-29T04:12:57.893Z,96.00
2019-04-29T04:13:57.589Z,104.00
2019-04-29T04:14:57.813Z,108.00
2019-04-29T04:15:57.434Z,116.00
2019-04-29T04:16:57.549Z,124.00
2019-04-29T04:17:57.532Z,132.00
2019-04-29T04:18:57.713Z,140.00
2019-04-29T04:19:57.857Z,148.00
2019-04-29T04:20:57.586Z,156.00
2019-04-29T04:21:57.515Z,168.00
2019-04-29T04:22:57.523Z,172.00
2019-04-29T04:23:58.264Z,184.00
2019-04-29T04:24:57.614Z,196.00
2019-04-29T04:25:57.543Z,200.00
2019-04-29T04:26:57.555Z,212.00
2019-04-29T04:27:57.569Z,220.00
2019-04-29T04:28:57.653Z,228.00
2019-04-29T04:29:57.620Z,240.00
2019-04-29T04:30:57.626Z,244.00
2019-04-29T04:31:58.017Z,256.00
2019-04-29T04:32:57.625Z,260.00
2019-04-29T04:33:57.631Z,268.00
2019-04-29T04:34:57.644Z,272.00
2019-04-29T04:35:57.663Z,284.00
2019-04-29T04:37:00.225Z,292.00
2019-04-29T04:38:57.685Z,308.00
2019-04-29T04:39:57.811Z,316.00
2019-04-29T04:40:57.724Z,328.00
2019-04-29T04:41:57.740Z,340.00
2019-04-29T04:42:57.791Z,352.00
2019-04-29T04:43:57.742Z,364.00
2019-04-29T04:44:57.794Z,368.00
2019-04-29T04:45:57.766Z,380.00
2019-04-29T04:46:57.836Z,388.00
2019-04-29T04:47:57.809Z,408.00
2019-04-29T04:48:57.809Z,420.00
2019-04-29T04:49:57.929Z,432.00
2019-04-29T04:50:57.883Z,448.00
2019-04-29T04:51:57.823Z,456.00
2019-04-29T04:52:57.934Z,464.00
2019-04-29T04:53:57.899Z,480.00
2019-04-29T04:54:57.868Z,496.00
2019-04-29T04:55:57.869Z,512.00
2019-04-29T04:56:58.418Z,524.00
2019-04-29T04:58:01.076Z,528.00
2019-04-29T04:58:57.898Z,528.00
2019-04-29T04:59:57.917Z,516.00
2019-04-29T05:00:57.942Z,512.00
2019-04-29T05:01:58.910Z,508.00
2019-04-29T05:02:57.953Z,504.00
2019-04-29T05:03:58.059Z,512.00
2019-04-29T05:04:57.966Z,516.00
2019-04-29T05:05:58.000Z,520.00
2019-04-29T05:06:58.007Z,528.00
2019-04-29T05:07:58.020Z,532.00
2019-04-29T05:08:58.078Z,540.00
2019-04-29T05:09:58.038Z,552.00
2019-04-29T05:10:58.040Z,564.00
2019-04-29T05:11:58.056Z,580.00
2019-04-29T05:12:58.549Z,592.00
2019-04-29T05:13:58.078Z,604.00
2019-04-29T05:15:01.546Z,620.00
2019-04-29T05:15:59.545Z,632.00
2019-04-29T05:16:58.411Z,644.00
2019-04-29T05:17:58.125Z,660.00
2019-04-29T05:18:58.251Z,672.00
2019-04-29T05:19:58.300Z,688.00
2019-04-29T05:20:58.156Z,704.00
2019-04-29T05:21:58.426Z,720.00
2019-04-29T05:22:58.679Z,740.00
2019-04-29T05:23:58.519Z,756.00
2019-04-29T05:24:58.502Z,776.00
2019-04-29T05:25:58.203Z,792.00
2019-04-29T05:26:58.259Z,808.00
2019-04-29T05:27:59.581Z,828.00
2019-04-29T05:28:58.259Z,848.00
2019-04-29T05:29:58.268Z,864.00
2019-04-29T05:30:59.452Z,884.00
2019-04-29T05:31:58.277Z,912.00
2019-04-29T05:32:59.305Z,940.00
2019-04-29T05:33:59.683Z,968.00
2019-04-29T05:34:58.360Z,1000.00
2019-04-29T05:36:02.067Z,1028.00
2019-04-29T05:36:58.607Z,1076.00
2019-04-29T05:37:58.347Z,1128.00
2019-04-29T05:38:58.347Z,1208.00
2019-04-29T05:39:58.389Z,1296.00
2019-04-29T05:40:58.370Z,1380.00
2019-04-29T05:41:58.403Z,1412.00
2019-04-29T05:42:58.391Z,1404.00
2019-04-29T05:43:58.463Z,1312.00
2019-04-29T05:44:58.424Z,1284.00
2019-04-29T05:45:58.453Z,1280.00
2019-04-29T05:46:58.444Z,1292.00
2019-04-29T05:47:58.655Z,1308.00
2019-04-29T05:49:02.325Z,1332.00
2019-04-29T05:49:58.483Z,1352.00
2019-04-29T05:52:01.993Z,1456.00
2019-04-29T05:52:58.520Z,1684.00
2019-04-29T05:53:58.530Z,1628.00
2019-04-29T05:55:01.364Z,1628.00
2019-04-29T05:55:58.552Z,1624.00
2019-04-29T05:56:58.551Z,1656.00
2019-04-29T05:58:02.992Z,1616.00
2019-04-29T05:58:58.581Z,1632.00
2019-04-29T05:59:58.711Z,1628.00
2019-04-29T06:00:58.608Z,1636.00
2019-04-29T06:01:58.633Z,1636.00
2019-04-29T06:02:58.638Z,1644.00
2019-04-29T06:03:58.640Z,1620.00
2019-04-29T06:04:58.655Z,1588.00
2019-04-29T06:05:58.661Z,1632.00
2019-04-29T06:06:58.667Z,1684.00
2019-04-29T06:08:01.047Z,1724.00
2019-04-29T06:08:58.736Z,1712.00
2019-04-29T06:09:58.744Z,1760.00
2019-04-29T06:10:58.742Z,1784.00
2019-04-29T06:11:58.735Z,1808.00
2019-04-29T06:12:58.817Z,1832.00
2019-04-29T06:13:59.569Z,1832.00
2019-04-29T06:14:58.785Z,1880.00
2019-04-29T06:15:58.790Z,1972.00
2019-04-29T06:17:58.803Z,2012.00
2019-04-29T06:19:00.375Z,1908.00
2019-04-29T06:19:58.846Z,1968.00
2019-04-29T06:21:08.925Z,2032.00
2019-04-29T06:21:59.983Z,2028.00
2019-04-29T06:23:00.097Z,2084.00
2019-04-29T06:24:03.737Z,2104.00
2019-04-29T06:25:00.188Z,2148.00
2019-04-29T06:26:59.311Z,2156.00
2019-04-29T06:27:59.203Z,2216.00
2019-04-29T06:31:59.854Z,2300.00
2019-04-29T06:35:00.267Z,2356.00
2019-04-29T06:36:59.363Z,2308.00
2019-04-29T06:38:59.228Z,2216.00
2019-04-29T06:39:59.489Z,2200.00
2019-04-29T06:40:59.251Z,2168.00
2019-04-29T06:43:02.381Z,2240.00
2019-04-29T06:44:00.624Z,2220.00
2019-04-29T06:45:00.075Z,2232.00
2019-04-29T06:45:59.380Z,2232.00
2019-04-29T06:46:59.404Z,2228.00
2019-04-29T06:47:59.295Z,2172.00
2019-04-29T06:49:10.052Z,2140.00
2019-04-29T06:49:59.214Z,2168.00
2019-04-29T06:50:59.274Z,2220.00
2019-04-29T06:51:59.220Z,2220.00
2019-04-29T06:52:59.246Z,2172.00
2019-04-29T06:53:59.248Z,2092.00
2019-04-29T06:55:00.985Z,2140.00
2019-04-29T06:55:59.295Z,2088.00
2019-04-29T06:56:59.282Z,2132.00
2019-04-29T06:57:59.300Z,2176.00
2019-04-29T06:58:59.410Z,2248.00
2019-04-29T06:59:59.319Z,2156.00
2019-04-29T07:01:01.037Z,2160.00
2019-04-29T07:01:59.407Z,2312.00
2019-04-29T07:02:59.449Z,2128.00
2019-04-29T07:03:59.920Z,2148.00
2019-04-29T07:04:59.379Z,2008.00
2019-04-29T07:05:59.411Z,1928.00
2019-04-29T07:06:59.552Z,1848.00
2019-04-29T07:07:59.457Z,1780.00
2019-04-29T07:08:59.460Z,1768.00
2019-04-29T07:09:59.522Z,1776.00
2019-04-29T07:11:01.199Z,1744.00
2019-04-29T07:12:01.564Z,1716.00
2019-04-29T07:12:59.889Z,1684.00
2019-04-29T07:15:59.526Z,1692.00
2019-04-29T07:17:00.911Z,1740.00
2019-04-29T07:18:00.177Z,1788.00
2019-04-29T07:19:00.112Z,2024.00
2019-04-29T07:20:01.982Z,1956.00
2019-04-29T07:20:59.586Z,2028.00
2019-04-29T07:21:59.613Z,2028.00
2019-04-29T07:23:00.657Z,2060.00
2019-04-29T07:23:59.682Z,2400.00
2019-04-29T07:24:59.629Z,2368.00
2019-04-29T07:25:59.649Z,2432.00
2019-04-29T07:27:02.813Z,2592.00
2019-04-29T07:27:59.676Z,2580.00
2019-04-29T07:29:01.130Z,2688.00
2019-04-29T07:30:01.736Z,2592.00
2019-04-29T07:31:01.758Z,2404.00
2019-04-29T07:31:59.733Z,2436.00
2019-04-29T07:32:59.748Z,2284.00
2019-04-29T07:33:59.755Z,2256.00
2019-04-29T07:34:59.755Z,2756.00
2019-04-29T07:36:10.817Z,2264.00
2019-04-29T07:36:59.814Z,2592.00
2019-04-29T07:37:59.813Z,2748.00
2019-04-29T07:38:59.826Z,2356.00
2019-04-29T07:40:03.783Z,2748.00
2019-04-29T07:40:59.844Z,2652.00
2019-04-29T07:42:03.021Z,3056.00
2019-04-29T07:43:02.879Z,3176.00
2019-04-29T07:43:59.906Z,3204.00
2019-04-29T07:44:59.938Z,3396.00
2019-04-29T07:46:03.730Z,3244.00
2019-04-29T07:47:02.450Z,3360.00
2019-04-29T07:48:01.762Z,3212.00
2019-04-29T07:49:01.700Z,3292.00
2019-04-29T07:49:59.988Z,3212.00
2019-04-29T07:51:04.210Z,3180.00
2019-04-29T07:51:59.993Z,3104.00
2019-04-29T07:53:00.232Z,3052.00
2019-04-29T07:54:00.013Z,3012.00
2019-04-29T07:55:00.275Z,2984.00
2019-04-29T07:56:01.749Z,3000.00
2019-04-29T07:57:00.068Z,2904.00
2019-04-29T07:58:00.082Z,2856.00
2019-04-29T07:59:03.011Z,2856.00
2019-04-29T08:00:00.097Z,2816.00
2019-04-29T08:01:00.104Z,2728.00
2019-04-29T08:02:01.393Z,2692.00
2019-04-29T08:03:00.113Z,2708.00
2019-04-29T08:04:00.133Z,2760.00
2019-04-29T08:05:02.890Z,2816.00
2019-04-29T08:06:00.170Z,2832.00
2019-04-29T08:07:00.175Z,2912.00
2019-04-29T08:08:00.807Z,2916.00
2019-04-29T08:09:03.238Z,2928.00
2019-04-29T08:10:00.245Z,2952.00
2019-04-29T08:11:00.220Z,2960.00
2019-04-29T08:12:00.265Z,2972.00
2019-04-29T08:13:00.250Z,2948.00
2019-04-29T08:14:01.260Z,3004.00
2019-04-29T08:15:07.510Z,2956.00
2019-04-29T08:16:00.744Z,2844.00
2019-04-29T08:17:00.313Z,2904.00
2019-04-29T08:18:06.727Z,2904.00
2019-04-29T08:19:00.444Z,2896.00
2019-04-29T08:20:00.669Z,2896.00
2019-04-29T08:21:00.367Z,2924.00
2019-04-29T08:22:00.437Z,2964.00
2019-04-29T08:23:02.591Z,2936.00
2019-04-29T08:24:00.416Z,2892.00
2019-04-29T08:25:00.417Z,3068.00
2019-04-29T08:26:02.699Z,3172.00
2019-04-29T08:27:00.448Z,3256.00
2019-04-29T08:28:00.613Z,3288.00
2019-04-29T08:30:00.478Z,3416.00
2019-04-29T08:31:00.506Z,3372.00
2019-04-29T08:32:02.581Z,3312.00
2019-04-29T08:34:00.865Z,3528.00
2019-04-29T08:35:03.283Z,3376.00
2019-04-29T08:38:00.597Z,3300.00
2019-04-29T08:39:08.395Z,3676.00
2019-04-29T08:40:15.487Z,3672.00
2019-04-29T08:41:01.272Z,3924.00
2019-04-29T08:42:03.770Z,3844.00
2019-04-29T08:43:00.664Z,3852.00
2019-04-29T08:44:15.237Z,3944.00
2019-04-29T08:45:01.678Z,3976.00
2019-04-29T08:46:00.800Z,4012.00
2019-04-29T08:47:00.733Z,3952.00
2019-04-29T08:48:00.741Z,3284.00
2019-04-29T08:49:01.049Z,3652.00
2019-04-29T08:50:00.927Z,3544.00
2019-04-29T08:52:01.420Z,2948.00
2019-04-29T08:53:00.802Z,2984.00
2019-04-29T08:54:00.809Z,3176.00
2019-04-29T08:55:00.817Z,3456.00
2019-04-29T08:56:00.828Z,3552.00
2019-04-29T08:57:04.065Z,3976.00
2019-04-29T08:59:00.943Z,4148.00
2019-04-29T09:00:00.946Z,4088.00
2019-04-29T09:01:00.955Z,4072.00
2019-04-29T09:03:00.970Z,3980.00
2019-04-29T09:04:00.944Z,3780.00
2019-04-29T09:05:01.024Z,3508.00
2019-04-29T09:06:05.593Z,3556.00
2019-04-29T09:07:12.066Z,3644.00
2019-04-29T09:08:01.000Z,3248.00
2019-04-29T09:09:04.908Z,3256.00
2019-04-29T09:10:03.349Z,4060.00
2019-04-29T09:11:01.027Z,4088.00
2019-04-29T09:12:01.053Z,4272.00
2019-04-29T09:13:01.095Z,4284.00
2019-04-29T09:14:01.077Z,3912.00
2019-04-29T09:16:01.546Z,3084.00
2019-04-29T09:17:01.120Z,3268.00
2019-04-29T09:18:01.195Z,4252.00
2019-04-29T09:19:01.149Z,3788.00
2019-04-29T09:20:01.166Z,3580.00
2019-04-29T09:21:01.223Z,3980.00
2019-04-29T09:22:01.197Z,3864.00
2019-04-29T09:23:01.204Z,4204.00
2019-04-29T09:24:01.206Z,4664.00
2019-04-29T09:25:01.223Z,4084.00
2019-04-29T09:26:02.733Z,3856.00
2019-04-29T09:27:05.011Z,3780.00
2019-04-29T09:28:01.278Z,3772.00
2019-04-29T09:29:03.927Z,3812.00
2019-04-29T09:30:01.340Z,3868.00
2019-04-29T09:31:01.333Z,3828.00
2019-04-29T09:32:01.427Z,4108.00
2019-04-29T09:33:01.358Z,4376.00
2019-04-29T09:34:06.889Z,4880.00
2019-04-29T09:35:02.192Z,5064.00
2019-04-29T09:36:01.406Z,5040.00
2019-04-29T09:37:01.403Z,5060.00
2019-04-29T09:38:01.448Z,4832.00
2019-04-29T09:39:01.446Z,5076.00
2019-04-29T09:40:01.470Z,5272.00
2019-04-29T09:41:01.670Z,5588.00
2019-04-29T09:42:03.374Z,6224.00
2019-04-29T09:43:14.797Z,5268.00
2019-04-29T09:44:03.880Z,5548.00
2019-04-29T09:45:01.529Z,5440.00
2019-04-29T09:46:01.526Z,5404.00
2019-04-29T09:47:04.181Z,5152.00
2019-04-29T09:48:01.732Z,4864.00
2019-04-29T09:49:01.569Z,4772.00
2019-04-29T09:50:01.608Z,4460.00
2019-04-29T09:51:01.603Z,4340.00
2019-04-29T09:52:01.603Z,4264.00
2019-04-29T09:53:01.630Z,4480.00
2019-04-29T09:54:01.669Z,4228.00
2019-04-29T09:56:02.614Z,4260.00
2019-04-29T09:57:03.057Z,4388.00
2019-04-29T09:58:01.744Z,4632.00
2019-04-29T10:00:05.354Z,4576.00
2019-04-29T10:01:01.774Z,4456.00
2019-04-29T10:02:01.785Z,4340.00
2019-04-29T10:03:02.859Z,4428.00
2019-04-29T10:04:01.943Z,4552.00
2019-04-29T10:05:01.828Z,4808.00
2019-04-29T10:06:02.129Z,4764.00
2019-04-29T10:07:01.822Z,4668.00
2019-04-29T10:08:01.846Z,4668.00
2019-04-29T10:09:01.855Z,4896.00
2019-04-29T10:10:06.077Z,4896.00
2019-04-29T10:11:01.878Z,4924.00
2019-04-29T10:12:01.900Z,4904.00
2019-04-29T10:13:01.903Z,4884.00
2019-04-29T10:14:01.934Z,4840.00
2019-04-29T10:15:01.977Z,4856.00
2019-04-29T10:16:02.192Z,4852.00
2019-04-29T10:17:01.980Z,4852.00
2019-04-29T10:18:01.991Z,4900.00
2019-04-29T10:19:05.330Z,4912.00
2019-04-29T10:20:02.066Z,4900.00
2019-04-29T10:21:02.025Z,4904.00
2019-04-29T10:22:02.926Z,4960.00
2019-04-29T10:25:03.398Z,5072.00
2019-04-29T10:26:02.218Z,5168.00
2019-04-29T10:27:02.140Z,5276.00
2019-04-29T10:28:02.123Z,5404.00
2019-04-29T10:29:02.151Z,5460.00
2019-04-29T10:30:02.167Z,5460.00
2019-04-29T10:31:02.167Z,5424.00
2019-04-29T10:32:02.548Z,5408.00
2019-04-29T10:33:02.201Z,5352.00
2019-04-29T10:34:02.223Z,5324.00
2019-04-29T10:35:03.668Z,5340.00
2019-04-29T10:36:02.261Z,5312.00
2019-04-29T10:37:02.784Z,5300.00
2019-04-29T10:38:03.196Z,5328.00
2019-04-29T10:39:02.288Z,5496.00
2019-04-29T10:40:10.922Z,5492.00
2019-04-29T10:41:02.415Z,5564.00
2019-04-29T10:42:02.338Z,5684.00
2019-04-29T10:44:02.377Z,6020.00
2019-04-29T10:45:02.431Z,6088.00
2019-04-29T10:46:02.393Z,5792.00
2019-04-29T10:47:02.408Z,5852.00
2019-04-29T10:48:02.431Z,5860.00
2019-04-29T10:49:03.728Z,5952.00
2019-04-29T10:50:02.464Z,5876.00
2019-04-29T10:51:02.554Z,5744.00
2019-04-29T10:52:02.804Z,5892.00
2019-04-29T10:53:02.509Z,5772.00
2019-04-29T10:55:03.085Z,5684.00
2019-04-29T10:56:05.774Z,5692.00
2019-04-29T10:57:02.678Z,5708.00
2019-04-29T10:58:02.566Z,5844.00
2019-04-29T10:59:04.608Z,5844.00
2019-04-29T11:00:02.660Z,5920.00
2019-04-29T11:01:02.698Z,5880.00
2019-04-29T11:02:08.993Z,5896.00
2019-04-29T11:03:02.637Z,6028.00
2019-04-29T11:04:02.951Z,6088.00
2019-04-29T11:05:02.948Z,6128.00
2019-04-29T11:06:02.692Z,6296.00
2019-04-29T11:07:13.583Z,6212.00
2019-04-29T11:08:04.297Z,6148.00
2019-04-29T11:09:02.737Z,6172.00
2019-04-29T11:10:03.033Z,6172.00
2019-04-29T11:11:02.850Z,6172.00
2019-04-29T11:12:03.294Z,6132.00
2019-04-29T11:13:03.011Z,6168.00
2019-04-29T11:14:03.269Z,6272.00
2019-04-29T11:15:03.896Z,6300.00
2019-04-29T11:16:02.838Z,6348.00
2019-04-29T11:17:03.296Z,6552.00
2019-04-29T11:18:03.666Z,6260.00
2019-04-29T11:19:05.323Z,6364.00
2019-04-29T11:20:02.904Z,6668.00
2019-04-29T11:21:02.898Z,6756.00
2019-04-29T11:22:03.300Z,7116.00
2019-04-29T11:23:03.810Z,7628.00
2019-04-29T11:24:02.976Z,7700.00
2019-04-29T11:25:03.070Z,7428.00
2019-04-29T11:26:03.033Z,7088.00
2019-04-29T11:27:11.479Z,6600.00
2019-04-29T11:28:03.167Z,6808.00
2019-04-29T11:29:05.544Z,6892.00
2019-04-29T11:31:03.066Z,6144.00
2019-04-29T11:32:03.070Z,6236.00
2019-04-29T11:33:04.666Z,6344.00
2019-04-29T11:34:05.454Z,7372.00
2019-04-29T11:35:03.210Z,6732.00
2019-04-29T11:36:04.105Z,6840.00
2019-04-29T11:37:03.155Z,6292.00
2019-04-29T11:38:03.202Z,6316.00
2019-04-29T11:39:03.253Z,6540.00
2019-04-29T11:40:03.370Z,6528.00
2019-04-29T11:41:03.215Z,6096.00
2019-04-29T11:44:03.270Z,7004.00
2019-04-29T11:45:03.822Z,6668.00
2019-04-29T11:46:03.290Z,6400.00
2019-04-29T11:47:03.359Z,6696.00
2019-04-29T11:48:03.340Z,6380.00
2019-04-29T11:49:03.357Z,5508.00
2019-04-29T11:50:03.335Z,5388.00
2019-04-29T11:51:03.395Z,5484.00
2019-04-29T11:52:09.651Z,5400.00
2019-04-29T11:53:04.388Z,5632.00
2019-04-29T11:54:03.399Z,5628.00
2019-04-29T11:55:03.426Z,5996.00
2019-04-29T11:56:03.444Z,6464.00
2019-04-29T11:57:03.438Z,6500.00
2019-04-29T11:58:03.452Z,6284.00
2019-04-29T11:59:03.514Z,6168.00
2019-04-29T12:00:03.482Z,6820.00
2019-04-29T12:01:04.031Z,5876.00
2019-04-29T12:02:03.515Z,6132.00
2019-04-29T12:03:03.541Z,6192.00
2019-04-29T12:04:03.561Z,5812.00
2019-04-29T12:05:04.295Z,5532.00
2019-04-29T12:06:03.592Z,6516.00
2019-04-29T12:07:03.845Z,6380.00
2019-04-29T12:08:11.211Z,5896.00
2019-04-29T12:09:06.619Z,5968.00
2019-04-29T12:10:06.598Z,6268.00
2019-04-29T12:11:07.107Z,6380.00
2019-04-29T12:12:03.666Z,6312.00
2019-04-29T12:13:03.683Z,6228.00
2019-04-29T12:14:04.652Z,5680.00
2019-04-29T12:15:03.739Z,5292.00
2019-04-29T12:16:03.738Z,5956.00
2019-04-29T12:17:03.797Z,5956.00
2019-04-29T12:18:03.770Z,5856.00
2019-04-29T12:19:04.601Z,5772.00
2019-04-29T12:20:03.813Z,6560.00
2019-04-29T12:21:03.811Z,7504.00
2019-04-29T12:22:04.962Z,7772.00
2019-04-29T12:23:03.940Z,8040.00
2019-04-29T12:24:03.846Z,8716.00
2019-04-29T12:25:03.911Z,7084.00
2019-04-29T12:26:05.035Z,6200.00
2019-04-29T12:27:03.951Z,7024.00
2019-04-29T12:28:18.152Z,7376.00
2019-04-29T12:29:03.923Z,7388.00
2019-04-29T12:30:03.967Z,7080.00
2019-04-29T12:31:05.685Z,7620.00
2019-04-29T12:32:04.041Z,8212.00
2019-04-29T12:33:03.993Z,7980.00
2019-04-29T12:34:04.007Z,7288.00
2019-04-29T12:35:04.023Z,6612.00
2019-04-29T12:36:05.207Z,5948.00
2019-04-29T12:37:04.081Z,6044.00
2019-04-29T12:38:05.516Z,6700.00
2019-04-29T12:39:04.081Z,7604.00
2019-04-29T12:40:04.080Z,7248.00
2019-04-29T12:41:04.111Z,6684.00
2019-04-29T12:42:04.701Z,6412.00
2019-04-29T12:43:04.140Z,6816.00
2019-04-29T12:44:04.183Z,6304.00
2019-04-29T12:45:04.161Z,5900.00
2019-04-29T12:46:04.249Z,6652.00
2019-04-29T12:47:04.202Z,7884.00
2019-04-29T12:48:06.485Z,8284.00
2019-04-29T12:49:08.597Z,7616.00
2019-04-29T12:50:04.279Z,7064.00
2019-04-29T12:51:04.331Z,6768.00
2019-04-29T12:52:04.296Z,6468.00
2019-04-29T12:53:04.281Z,6948.00
2019-04-29T12:54:04.306Z,7600.00
2019-04-29T12:55:19.652Z,7808.00
2019-04-29T12:56:07.175Z,7588.00
2019-04-29T12:57:04.357Z,6928.00
2019-04-29T12:58:04.629Z,6176.00
2019-04-29T12:59:04.478Z,5328.00
2019-04-29T13:00:07.647Z,5024.00
2019-04-29T13:01:05.942Z,5140.00
2019-04-29T13:02:04.813Z,5408.00
2019-04-29T13:03:04.657Z,5844.00
2019-04-29T13:04:04.463Z,6388.00
2019-04-29T13:05:04.576Z,7064.00
2019-04-29T13:06:04.484Z,7864.00
2019-04-29T13:07:06.786Z,8556.00
2019-04-29T13:08:04.598Z,7596.00
2019-04-29T13:09:17.343Z,6800.00
2019-04-29T13:10:06.844Z,6452.00
2019-04-29T13:11:04.581Z,6804.00
2019-04-29T13:12:17.708Z,6956.00
2019-04-29T13:13:04.592Z,7460.00
2019-04-29T13:14:04.628Z,6692.00
2019-04-29T13:15:08.036Z,6904.00
2019-04-29T13:16:04.704Z,7052.00
2019-04-29T13:17:14.312Z,7628.00